createdAt,value
2023-05-15T00:02:15.401Z,12.00
2023-05-15T00:04:44.712Z,12.88
2023-05-15T00:07:14.005Z,12.32
2023-05-15T00:09:43.386Z,12.73
2023-05-15T00:12:12.979Z,12.82
2023-05-15T00:14:42.522Z,11.70
2023-05-15T00:17:13.668Z,12.68
2023-05-15T00:19:42.968Z,11.68
2023-05-15T00:22:12.495Z,12.00
2023-05-15T00:24:41.718Z,12.10
2023-05-15T00:27:11.615Z,12.45
2023-05-15T00:29:40.923Z,13.50
2023-05-15T00:32:10.632Z,14.32
2023-05-15T00:34:40.311Z,14.27
2023-05-15T00:37:09.610Z,15.05
2023-05-15T00:39:41.122Z,15.63
2023-05-15T00:42:11.618Z,14.75
2023-05-15T00:44:42.916Z,15.30
2023-05-15T00:47:15.849Z,16.42
2023-05-15T00:49:46.635Z,14.77
2023-05-15T00:52:16.906Z,13.77
2023-05-15T00:54:46.295Z,14.10
2023-05-15T00:57:16.996Z,15.07
2023-05-15T00:59:48.221Z,15.02
2023-05-15T01:02:19.943Z,14.23
2023-05-15T01:04:49.656Z,14.40
2023-05-15T01:07:18.962Z,13.60
2023-05-15T01:09:50.938Z,13.65
2023-05-15T01:12:21.215Z,14.15
2023-05-15T01:14:51.919Z,14.07
2023-05-15T01:17:21.335Z,14.30
2023-05-15T01:19:53.467Z,15.10
2023-05-15T01:22:51.779Z,14.77
2023-05-15T01:25:55.153Z,13.40
2023-05-15T01:28:38.214Z,14.55
2023-05-15T01:31:15.252Z,12.77
2023-05-15T01:33:48.847Z,13.95
2023-05-15T01:36:23.226Z,13.88
2023-05-15T01:38:58.917Z,15.20
2023-05-15T01:42:01.983Z,14.18
2023-05-15T01:44:33.851Z,13.88
2023-05-15T01:47:14.283Z,14.23
2023-05-15T01:49:47.839Z,13.57
2023-05-15T01:52:36.247Z,14.60
2023-05-15T01:55:07.275Z,15.95
2023-05-15T01:57:38.656Z,19.20
2023-05-15T02:00:09.798Z,18.90
2023-05-15T02:02:45.608Z,23.58
2023-05-15T02:05:16.258Z,28.95
2023-05-15T02:07:47.612Z,37.03
2023-05-15T02:10:19.642Z,42.45
2023-05-15T02:12:51.424Z,47.00
2023-05-15T02:15:24.929Z,52.58
2023-05-15T02:17:54.558Z,53.20
2023-05-15T02:20:24.428Z,59.35
2023-05-15T02:22:54.602Z,63.42
2023-05-15T02:25:34.442Z,64.70
2023-05-15T02:28:07.900Z,64.85
2023-05-15T02:30:42.698Z,65.45
2023-05-15T02:33:39.489Z,66.72
2023-05-15T02:36:14.040Z,68.55
2023-05-15T02:38:50.668Z,68.68
2023-05-15T02:41:23.429Z,67.35
2023-05-15T02:43:56.567Z,70.53
2023-05-15T02:46:27.457Z,72.70
2023-05-15T02:48:57.645Z,71.47
2023-05-15T02:51:27.596Z,70.45
2023-05-15T02:53:57.128Z,68.03
2023-05-15T02:56:27.494Z,66.70
2023-05-15T02:58:57.791Z,63.35
2023-05-15T03:01:27.589Z,54.65
2023-05-15T03:03:57.245Z,50.95
2023-05-15T03:06:26.569Z,44.92
2023-05-15T03:08:56.264Z,37.42
2023-05-15T03:11:25.632Z,33.65
2023-05-15T03:13:56.319Z,35.22
2023-05-15T03:16:25.910Z,36.92
2023-05-15T03:18:55.852Z,36.05
2023-05-15T03:21:25.410Z,36.80
2023-05-15T03:23:54.436Z,39.55
2023-05-15T03:26:24.327Z,38.20
2023-05-15T03:28:54.163Z,31.88
2023-05-15T03:31:23.595Z,27.00
2023-05-15T03:33:53.424Z,24.63
2023-05-15T03:36:24.097Z,25.55
2023-05-15T03:38:53.433Z,26.15
2023-05-15T03:41:23.560Z,22.98
2023-05-15T03:43:53.878Z,22.90
2023-05-15T03:46:23.524Z,22.00
2023-05-15T03:48:54.167Z,20.38
2023-05-15T03:51:25.205Z,18.67
2023-05-15T03:53:56.349Z,17.77
2023-05-15T03:56:25.723Z,17.50
2023-05-15T03:58:55.167Z,16.33
2023-05-15T04:01:27.130Z,15.48
2023-05-15T04:03:56.395Z,12.48
2023-05-15T04:06:25.843Z,11.55
2023-05-15T04:08:55.176Z,10.75
2023-05-15T04:11:25.140Z,10.48
2023-05-15T04:13:55.323Z,11.10
2023-05-15T04:16:24.834Z,10.65
2023-05-15T04:18:53.902Z,11.38
2023-05-15T04:21:23.263Z,10.10
2023-05-15T04:23:52.406Z,10.90
2023-05-15T04:26:21.879Z,11.15
2023-05-15T04:29:02.747Z,12.07
2023-05-15T04:31:33.907Z,10.65
2023-05-15T04:34:03.356Z,10.60
2023-05-15T04:36:42.164Z,10.95
2023-05-15T04:39:13.676Z,12.25
2023-05-15T04:41:44.312Z,10.38
2023-05-15T04:44:14.427Z,10.73
2023-05-15T04:46:43.876Z,10.00
2023-05-15T04:49:16.430Z,9.98
2023-05-15T04:51:46.340Z,10.63
2023-05-15T04:54:18.450Z,9.75
2023-05-15T04:56:48.264Z,9.77
2023-05-15T04:59:18.782Z,9.40
2023-05-15T05:01:48.667Z,9.35
2023-05-15T05:04:20.576Z,9.80
2023-05-15T05:06:50.037Z,11.00
2023-05-15T05:09:22.269Z,10.70
2023-05-15T05:11:52.070Z,9.77
2023-05-15T05:14:21.338Z,10.63
2023-05-15T05:16:50.771Z,10.65
2023-05-15T05:19:20.434Z,11.52
2023-05-15T05:21:49.877Z,12.25
2023-05-15T05:24:19.392Z,11.48
2023-05-15T05:26:52.498Z,12.60
2023-05-15T05:29:22.401Z,12.55
2023-05-15T05:31:52.640Z,13.30
2023-05-15T05:34:24.686Z,13.80
2023-05-15T05:36:54.247Z,14.68
2023-05-15T05:39:23.670Z,15.73
2023-05-15T05:41:53.659Z,19.08
2023-05-15T05:44:23.165Z,20.33
2023-05-15T05:46:53.545Z,20.65
2023-05-15T05:49:30.200Z,20.45
2023-05-15T05:52:07.673Z,20.00
2023-05-15T05:54:37.973Z,20.25
2023-05-15T05:57:08.915Z,21.52
2023-05-15T05:59:38.744Z,22.85
2023-05-15T06:02:09.464Z,25.08
2023-05-15T06:04:39.837Z,24.38
2023-05-15T06:07:09.757Z,26.13
2023-05-15T06:09:40.475Z,26.20
2023-05-15T06:12:15.609Z,25.45
2023-05-15T06:14:46.110Z,24.58
2023-05-15T06:17:15.899Z,25.58
2023-05-15T06:19:45.314Z,24.13
2023-05-15T06:22:17.373Z,23.98
2023-05-15T06:24:50.118Z,24.40
2023-05-15T06:27:23.608Z,26.13
2023-05-15T06:29:52.904Z,22.73
2023-05-15T06:32:22.246Z,23.13
2023-05-15T06:34:56.430Z,24.15
2023-05-15T06:37:26.730Z,23.58
2023-05-15T06:39:57.566Z,19.17
2023-05-15T06:42:28.801Z,18.70
2023-05-15T06:44:59.962Z,18.83
2023-05-15T06:47:29.582Z,17.10
2023-05-15T06:49:59.055Z,16.17
2023-05-15T06:52:29.222Z,16.60
2023-05-15T06:54:59.162Z,16.77
2023-05-15T06:57:28.504Z,17.85
2023-05-15T07:00:03.828Z,17.90
2023-05-15T07:02:33.961Z,18.08
2023-05-15T07:05:04.852Z,18.55
2023-05-15T07:07:39.172Z,18.38
2023-05-15T07:10:13.479Z,17.75
2023-05-15T07:12:43.025Z,18.25
2023-05-15T07:15:12.981Z,17.00
2023-05-15T07:17:42.838Z,16.98
2023-05-15T07:20:13.436Z,14.48
2023-05-15T07:22:55.118Z,13.18
2023-05-15T07:25:27.361Z,11.35
2023-05-15T07:27:58.532Z,10.80
2023-05-15T07:30:28.168Z,9.88
2023-05-15T07:32:57.864Z,9.52
2023-05-15T07:35:30.357Z,8.93
2023-05-15T07:38:00.137Z,10.55
2023-05-15T07:40:29.914Z,9.82
2023-05-15T07:42:59.861Z,10.10
2023-05-15T07:45:34.122Z,9.38
2023-05-15T07:48:16.480Z,9.32
2023-05-15T07:50:48.163Z,11.03
2023-05-15T07:53:20.927Z,10.63
2023-05-15T07:58:22.633Z,8.45
2023-05-15T08:00:53.292Z,7.22
2023-05-15T08:03:23.189Z,5.95
2023-05-15T08:05:54.181Z,6.88
2023-05-15T08:08:24.358Z,6.30
2023-05-15T08:10:54.441Z,4.80
2023-05-15T08:13:23.933Z,5.43
2023-05-15T08:15:54.611Z,5.75
2023-05-15T08:18:27.706Z,5.85
2023-05-15T08:20:58.083Z,7.38
2023-05-15T08:23:28.160Z,6.88
2023-05-15T08:25:57.421Z,6.70
2023-05-15T08:31:09.819Z,6.80
2023-05-15T08:33:40.360Z,6.22
2023-05-15T08:36:14.242Z,5.38
2023-05-15T08:38:44.022Z,5.97
2023-05-15T08:41:39.219Z,6.10
2023-05-15T08:44:14.269Z,5.90
2023-05-15T08:46:45.342Z,5.30
2023-05-15T08:49:54.013Z,5.40
2023-05-15T08:52:29.347Z,5.93
2023-05-15T08:55:01.402Z,6.57
2023-05-15T08:57:31.146Z,6.22
2023-05-15T09:00:02.455Z,6.30
2023-05-15T09:02:33.156Z,5.93
2023-05-15T09:05:05.164Z,4.57
2023-05-15T09:07:36.322Z,4.40
2023-05-15T09:10:09.364Z,4.60
2023-05-15T09:12:46.285Z,4.22
2023-05-15T09:15:19.840Z,4.32
2023-05-15T09:17:51.281Z,3.83
2023-05-15T09:20:39.943Z,3.58
2023-05-15T09:23:27.901Z,4.00
2023-05-15T09:26:00.714Z,4.00
2023-05-15T09:28:35.882Z,3.40
2023-05-15T09:31:08.015Z,3.47
2023-05-15T09:33:40.523Z,4.25
2023-05-15T09:36:11.755Z,3.33
2023-05-15T09:38:50.650Z,4.70
2023-05-15T09:41:27.651Z,3.50
2023-05-15T09:43:58.940Z,3.60
2023-05-15T09:46:29.724Z,4.00
2023-05-15T09:49:02.115Z,3.63
2023-05-15T09:51:35.798Z,3.28
2023-05-15T09:54:05.937Z,4.00
2023-05-15T09:56:38.153Z,2.90
2023-05-15T09:59:08.940Z,3.40
2023-05-15T10:01:39.007Z,4.93
2023-05-15T10:04:10.556Z,3.97
2023-05-15T10:06:43.182Z,3.90
2023-05-15T10:09:19.759Z,4.00
2023-05-15T10:11:55.890Z,3.88
2023-05-15T10:14:30.566Z,4.43
2023-05-15T10:17:01.363Z,4.30
2023-05-15T10:19:32.958Z,3.83
2023-05-15T10:22:05.601Z,4.47
2023-05-15T10:24:39.042Z,3.60
2023-05-15T10:27:12.148Z,3.60
2023-05-15T10:29:46.375Z,3.65
2023-05-15T10:32:19.485Z,3.83
2023-05-15T10:37:23.935Z,4.28
2023-05-15T10:40:00.286Z,4.13
2023-05-15T10:42:33.868Z,4.70
2023-05-15T10:45:06.047Z,3.55
2023-05-15T10:47:38.739Z,4.38
2023-05-15T10:50:10.567Z,4.80
2023-05-15T10:52:41.868Z,5.07
2023-05-15T10:55:21.499Z,4.90
2023-05-15T10:57:53.930Z,6.47
2023-05-15T11:00:35.579Z,5.00
2023-05-15T11:03:10.710Z,6.07
2023-05-15T11:06:12.648Z,5.28
2023-05-15T11:08:46.842Z,5.07
2023-05-15T11:11:53.794Z,4.35
2023-05-15T11:14:25.928Z,5.00
2023-05-15T11:17:02.330Z,4.72
2023-05-15T11:19:35.745Z,4.72
2023-05-15T11:22:19.857Z,4.22
2023-05-15T11:25:15.010Z,4.72
2023-05-15T11:27:48.523Z,5.75
2023-05-15T11:30:26.904Z,4.85
2023-05-15T11:33:01.497Z,5.35
2023-05-15T11:35:50.598Z,5.75
2023-05-15T11:38:29.288Z,5.40
2023-05-15T11:41:05.541Z,5.72
2023-05-15T11:43:38.553Z,5.25
2023-05-15T11:46:14.767Z,5.65
2023-05-15T11:48:49.963Z,4.88
2023-05-15T11:51:21.129Z,5.05
2023-05-15T11:53:56.086Z,4.88
2023-05-15T11:56:29.388Z,5.65
2023-05-15T11:59:01.026Z,6.07
2023-05-15T12:01:42.425Z,5.72
2023-05-15T12:04:19.790Z,5.55
2023-05-15T12:06:51.037Z,5.97
2023-05-15T12:09:23.796Z,5.05
2023-05-15T12:11:57.361Z,6.13
2023-05-15T12:14:30.597Z,5.95
2023-05-15T12:17:05.324Z,5.70
2023-05-15T12:19:40.691Z,5.78
2023-05-15T12:22:10.670Z,5.63
2023-05-15T12:24:41.047Z,4.53
2023-05-15T12:27:10.892Z,5.45
2023-05-15T12:29:42.334Z,5.53
2023-05-15T12:32:12.603Z,5.60
2023-05-15T12:34:42.344Z,5.82
2023-05-15T12:37:14.946Z,5.30
2023-05-15T12:40:14.472Z,5.18
2023-05-15T12:42:46.016Z,5.80
2023-05-15T12:45:17.632Z,5.35
2023-05-15T12:47:49.602Z,5.07
2023-05-15T12:50:22.094Z,5.38
2023-05-15T12:53:03.465Z,4.55
2023-05-15T12:55:37.935Z,5.57
2023-05-15T12:58:12.677Z,4.72
2023-05-15T13:00:50.058Z,5.00
2023-05-15T13:03:23.138Z,5.05
2023-05-15T13:05:53.953Z,5.55
2023-05-15T13:08:23.123Z,5.25
2023-05-15T13:10:59.355Z,5.53
2023-05-15T13:13:49.754Z,5.50
2023-05-15T13:16:30.899Z,5.55
2023-05-15T13:19:00.738Z,5.00
2023-05-15T13:21:31.030Z,5.75
2023-05-15T13:24:00.413Z,5.65
2023-05-15T13:26:29.971Z,5.90
2023-05-15T13:28:59.453Z,5.57
2023-05-15T13:31:29.644Z,5.57
2023-05-15T13:33:58.934Z,6.40
2023-05-15T13:36:28.303Z,7.88
2023-05-15T13:38:57.412Z,6.63
2023-05-15T13:41:27.273Z,6.07
2023-05-15T13:43:57.135Z,6.32
2023-05-15T13:46:26.363Z,6.68
2023-05-15T13:48:55.715Z,6.25
2023-05-15T13:51:25.715Z,6.30
2023-05-15T13:53:55.234Z,6.70
2023-05-15T13:56:24.581Z,5.57
2023-05-15T13:58:53.794Z,6.20
2023-05-15T14:01:23.233Z,6.47
2023-05-15T14:03:55.554Z,6.05
2023-05-15T14:06:24.872Z,6.85
2023-05-15T14:08:53.929Z,6.63
2023-05-15T14:11:24.036Z,6.80
2023-05-15T14:13:53.710Z,6.47
2023-05-15T14:16:22.952Z,6.70
2023-05-15T14:18:52.585Z,7.75
2023-05-15T14:21:22.752Z,6.78
2023-05-15T14:23:52.024Z,6.85
2023-05-15T14:26:21.481Z,7.32
2023-05-15T14:28:51.032Z,7.75
2023-05-15T14:31:20.497Z,7.35
2023-05-15T14:33:52.413Z,7.75
2023-05-15T14:36:22.570Z,7.25
2023-05-15T14:38:51.893Z,7.88
2023-05-15T14:41:22.796Z,8.38
2023-05-15T14:43:53.384Z,8.73
2023-05-15T14:46:22.967Z,9.48
2023-05-15T14:48:52.578Z,9.80
2023-05-15T14:51:21.920Z,10.95
2023-05-15T14:53:51.148Z,10.98
2023-05-15T14:56:20.531Z,11.77
2023-05-15T14:58:52.247Z,13.40
2023-05-15T15:01:22.402Z,12.60
2023-05-15T15:03:52.321Z,15.18
2023-05-15T15:06:22.420Z,14.77
2023-05-15T15:08:52.231Z,15.15
2023-05-15T15:11:21.714Z,15.52
2023-05-15T15:13:52.053Z,16.45
2023-05-15T15:16:21.942Z,15.25
2023-05-15T15:18:51.749Z,16.67
2023-05-15T15:21:21.546Z,15.70
2023-05-15T15:23:51.021Z,15.15
2023-05-15T15:26:20.241Z,15.60
2023-05-15T15:28:49.662Z,14.70
2023-05-15T15:31:19.600Z,15.27
2023-05-15T15:33:50.820Z,15.02
2023-05-15T15:36:20.354Z,14.30
2023-05-15T15:38:49.489Z,15.10
2023-05-15T15:41:20.184Z,15.90
2023-05-15T15:43:49.735Z,15.73
2023-05-15T15:46:19.497Z,15.20
2023-05-15T15:48:48.784Z,15.60
2023-05-15T15:51:18.470Z,14.88
2023-05-15T15:53:48.188Z,15.07
2023-05-15T15:56:17.452Z,16.85
2023-05-15T15:58:46.739Z,16.95
2023-05-15T16:01:16.144Z,16.45
2023-05-15T16:03:45.905Z,17.35
2023-05-15T16:06:15.514Z,17.42
2023-05-15T16:08:44.704Z,18.77
2023-05-15T16:11:14.340Z,18.27
2023-05-15T16:13:43.801Z,19.42
2023-05-15T16:16:13.020Z,20.17
2023-05-15T16:18:42.580Z,19.55
2023-05-15T16:21:13.088Z,19.95
2023-05-15T16:23:43.018Z,20.42
2023-05-15T16:26:12.507Z,21.42
2023-05-15T16:28:42.121Z,22.13
2023-05-15T16:31:11.159Z,22.50
2023-05-15T16:33:40.581Z,24.75
2023-05-15T16:36:10.275Z,24.13
2023-05-15T16:38:40.207Z,25.90
2023-05-15T16:41:09.580Z,24.75
2023-05-15T16:43:57.573Z,22.08
2023-05-15T16:46:27.444Z,19.08
2023-05-15T16:48:56.582Z,17.40
2023-05-15T16:51:26.339Z,16.15
2023-05-15T16:53:57.568Z,14.35
2023-05-15T16:56:28.140Z,13.15
2023-05-15T16:58:57.769Z,12.70
2023-05-15T17:01:27.648Z,11.98
2023-05-15T17:06:28.037Z,10.48
2023-05-15T17:08:58.076Z,9.95
2023-05-15T17:11:27.741Z,9.25
2023-05-15T17:13:58.494Z,9.18
2023-05-15T17:16:28.530Z,8.82
2023-05-15T17:18:58.647Z,8.40
2023-05-15T17:21:29.072Z,8.65
2023-05-15T17:23:58.921Z,8.50
2023-05-15T17:26:29.404Z,8.18
2023-05-15T17:29:00.238Z,7.47
2023-05-15T17:31:31.725Z,7.72
2023-05-15T17:34:02.517Z,8.57
2023-05-15T17:36:35.161Z,8.50
2023-05-15T17:39:06.388Z,6.63
2023-05-15T17:41:36.643Z,7.05
2023-05-15T17:44:08.191Z,7.53
2023-05-15T17:46:38.802Z,8.02
2023-05-15T17:49:09.184Z,7.57
2023-05-15T17:51:40.251Z,7.60
2023-05-15T17:54:11.181Z,7.00
2023-05-15T17:56:42.635Z,7.47
2023-05-15T17:59:13.789Z,7.20
2023-05-15T18:01:44.472Z,7.68
2023-05-15T18:04:15.082Z,7.10
2023-05-15T18:06:45.939Z,7.18
2023-05-15T18:09:24.162Z,7.60
2023-05-15T18:11:55.826Z,7.07
2023-05-15T18:14:26.976Z,7.15
2023-05-15T18:16:59.035Z,6.80
2023-05-15T18:19:29.884Z,6.87
2023-05-15T18:22:04.251Z,6.75
2023-05-15T18:24:35.582Z,6.25
2023-05-15T18:27:06.648Z,6.40
2023-05-15T18:29:37.883Z,6.22
2023-05-15T18:32:09.259Z,6.22
2023-05-15T18:34:39.232Z,5.93
2023-05-15T18:37:09.281Z,5.53
2023-05-15T18:39:40.411Z,5.72
2023-05-15T18:42:10.972Z,5.63
2023-05-15T18:44:41.378Z,5.65
2023-05-15T18:47:11.308Z,5.68
2023-05-15T18:49:41.865Z,5.70
2023-05-15T18:52:11.625Z,6.25
2023-05-15T18:54:43.230Z,6.55
2023-05-15T18:57:15.780Z,6.80
2023-05-15T18:59:46.108Z,6.43
2023-05-15T19:02:16.277Z,5.97
2023-05-15T19:04:45.916Z,6.20
2023-05-15T19:07:15.451Z,5.78
2023-05-15T19:09:45.222Z,6.35
2023-05-15T19:12:15.051Z,6.07
2023-05-15T19:14:44.797Z,5.88
2023-05-15T19:17:14.296Z,6.03
2023-05-15T19:19:44.109Z,6.18
2023-05-15T19:22:13.641Z,6.20
2023-05-15T19:24:43.287Z,6.22
2023-05-15T19:27:12.644Z,5.95
2023-05-15T19:29:42.979Z,6.25
2023-05-15T19:32:12.876Z,5.90
2023-05-15T19:34:43.014Z,6.63
2023-05-15T19:37:12.786Z,6.78
2023-05-15T19:39:42.737Z,6.63
2023-05-15T19:42:12.359Z,6.07
2023-05-15T19:44:41.965Z,6.18
2023-05-15T19:47:11.656Z,6.15
2023-05-15T19:49:40.966Z,5.72
2023-05-15T19:52:10.603Z,6.22
2023-05-15T19:54:40.060Z,5.57
2023-05-15T19:57:09.545Z,6.40
2023-05-15T19:59:39.705Z,6.40
2023-05-15T20:02:11.563Z,5.95
2023-05-15T20:04:41.184Z,5.78
2023-05-15T20:07:10.353Z,6.18
2023-05-15T20:09:40.521Z,5.72
2023-05-15T20:12:09.736Z,5.55
2023-05-15T20:14:39.420Z,5.80
2023-05-15T20:17:08.626Z,6.07
2023-05-15T20:19:38.656Z,6.25
2023-05-15T20:22:07.819Z,5.70
2023-05-15T20:24:37.156Z,6.55
2023-05-15T20:27:06.834Z,6.38
2023-05-15T20:29:36.776Z,6.38
2023-05-15T20:32:06.952Z,5.72
2023-05-15T20:34:37.881Z,5.68
2023-05-15T20:37:07.555Z,5.50
2023-05-15T20:39:37.768Z,6.20
2023-05-15T20:42:07.886Z,5.88
2023-05-15T20:44:40.241Z,6.13
2023-05-15T20:47:10.069Z,5.80
2023-05-15T20:49:39.449Z,6.18
2023-05-15T20:52:09.047Z,6.25
2023-05-15T20:54:45.975Z,5.90
2023-05-15T20:57:15.964Z,6.25
2023-05-15T20:59:45.383Z,6.10
2023-05-15T21:02:15.060Z,5.90
2023-05-15T21:04:45.174Z,5.68
2023-05-15T21:07:14.421Z,6.65
2023-05-15T21:09:43.789Z,7.30
2023-05-15T21:12:13.086Z,6.05
2023-05-15T21:14:42.669Z,6.22
2023-05-15T21:17:12.390Z,6.18
2023-05-15T21:19:42.283Z,7.05
2023-05-15T21:22:11.500Z,6.43
2023-05-15T21:24:41.499Z,6.22
2023-05-15T21:27:10.642Z,6.10
2023-05-15T21:29:40.672Z,5.97
2023-05-15T21:32:10.108Z,6.90
2023-05-15T21:34:39.368Z,6.45
2023-05-15T21:37:08.604Z,6.10
2023-05-15T21:39:37.915Z,6.72
2023-05-15T21:42:07.342Z,6.30
2023-05-15T21:44:36.739Z,6.70
2023-05-15T21:47:06.131Z,6.20
2023-05-15T21:49:35.324Z,7.78
2023-05-15T21:52:05.048Z,6.68
2023-05-15T21:54:34.604Z,6.80
2023-05-15T21:57:03.965Z,7.05
2023-05-15T21:59:33.449Z,7.53
2023-05-15T22:02:02.966Z,7.03
2023-05-15T22:04:32.427Z,7.55
2023-05-15T22:07:01.982Z,7.68
2023-05-15T22:09:31.305Z,7.25
2023-05-15T22:12:01.238Z,8.57
2023-05-15T22:14:31.372Z,7.13
2023-05-15T22:17:01.289Z,8.35
2023-05-15T22:19:33.444Z,7.80
2023-05-15T22:22:06.248Z,7.05
2023-05-15T22:24:36.040Z,8.73
2023-05-15T22:27:05.611Z,9.48
2023-05-15T22:29:35.018Z,10.95
2023-05-15T22:32:04.685Z,9.30
2023-05-15T22:34:34.225Z,10.45
2023-05-15T22:37:03.628Z,10.15
2023-05-15T22:39:33.389Z,10.30
2023-05-15T22:42:02.677Z,10.70
2023-05-15T22:44:32.162Z,10.63
2023-05-15T22:47:02.830Z,10.60
2023-05-15T22:49:32.034Z,10.52
2023-05-15T22:52:02.144Z,11.68
2023-05-15T22:54:31.509Z,11.05
2023-05-15T22:57:01.319Z,11.60
2023-05-15T22:59:30.614Z,10.68
2023-05-15T23:01:59.887Z,10.75
2023-05-15T23:04:29.616Z,11.25
2023-05-15T23:06:58.919Z,11.80
2023-05-15T23:09:28.321Z,11.57
2023-05-15T23:11:58.194Z,12.23
2023-05-15T23:14:27.365Z,12.30
2023-05-15T23:16:56.614Z,13.40
2023-05-15T23:19:26.093Z,13.15
2023-05-15T23:21:55.372Z,12.48
2023-05-15T23:24:24.984Z,14.65
2023-05-15T23:26:54.262Z,16.70
2023-05-15T23:29:23.654Z,20.42
2023-05-15T23:32:03.716Z,20.00
2023-05-15T23:34:33.976Z,21.98
2023-05-15T23:37:03.321Z,23.60
2023-05-15T23:39:32.995Z,24.30
2023-05-15T23:42:02.603Z,25.95
2023-05-15T23:44:32.414Z,25.17
2023-05-15T23:47:01.847Z,26.42
2023-05-15T23:49:32.487Z,26.15
2023-05-15T23:52:02.007Z,26.08
2023-05-15T23:54:31.224Z,25.67
2023-05-15T23:57:00.360Z,26.60
2023-05-15T23:59:29.659Z,26.60
